sensor_id;sensor_type;location;lat;lon;timestamp;P1;durP1;ratioP1;P2;durP2;ratioP2
17927;SDS011;9089;58.396;15.544;2022-07-06T00:00:00;2.78;;;1.23;;
17927;SDS011;9089;58.396;15.544;2022-07-06T00:02:26;3.53;;;1.27;;
17927;SDS011;9089;58.396;15.544;2022-07-06T00:04:51;5.95;;;1.55;;
17927;SDS011;9089;58.396;15.544;2022-07-06T00:07:17;2.80;;;1.20;;
17927;SDS011;9089;58.396;15.544;2022-07-06T00:09:42;2.63;;;1.30;;
17927;SDS011;9089;58.396;15.544;2022-07-06T00:12:09;2.33;;;1.23;;
17927;SDS011;9089;58.396;15.544;2022-07-06T00:14:35;4.18;;;1.48;;
17927;SDS011;9089;58.396;15.544;2022-07-06T00:17:00;4.68;;;1.40;;
17927;SDS011;9089;58.396;15.544;2022-07-06T00:19:26;2.58;;;1.17;;
17927;SDS011;9089;58.396;15.544;2022-07-06T00:21:51;6.43;;;1.30;;
17927;SDS011;9089;58.396;15.544;2022-07-06T00:24:17;2.88;;;1.08;;
17927;SDS011;9089;58.396;15.544;2022-07-06T00:26:43;4.90;;;1.40;;
17927;SDS011;9089;58.396;15.544;2022-07-06T00:29:10;2.83;;;1.50;;
17927;SDS011;9089;58.396;15.544;2022-07-06T00:31:35;10.38;;;1.42;;
17927;SDS011;9089;58.396;15.544;2022-07-06T00:34:01;4.38;;;1.30;;
17927;SDS011;9089;58.396;15.544;2022-07-06T00:36:26;5.32;;;1.80;;
17927;SDS011;9089;58.396;15.544;2022-07-06T00:38:52;2.75;;;1.08;;
17927;SDS011;9089;58.396;15.544;2022-07-06T00:41:18;2.40;;;1.33;;
17927;SDS011;9089;58.396;15.544;2022-07-06T00:43:47;2.33;;;1.20;;
17927;SDS011;9089;58.396;15.544;2022-07-06T00:46:14;3.40;;;1.35;;
17927;SDS011;9089;58.396;15.544;2022-07-06T00:48:39;5.43;;;1.40;;
17927;SDS011;9089;58.396;15.544;2022-07-06T00:51:04;3.17;;;1.25;;
17927;SDS011;9089;58.396;15.544;2022-07-06T00:53:30;3.03;;;1.45;;
17927;SDS011;9089;58.396;15.544;2022-07-06T00:55:55;4.75;;;1.40;;
17927;SDS011;9089;58.396;15.544;2022-07-06T00:58:21;2.17;;;1.30;;
17927;SDS011;9089;58.396;15.544;2022-07-06T01:00:47;3.42;;;2.08;;
17927;SDS011;9089;58.396;15.544;2022-07-06T01:03:14;1.88;;;1.30;;
17927;SDS011;9089;58.396;15.544;2022-07-06T01:05:39;3.95;;;1.35;;
17927;SDS011;9089;58.396;15.544;2022-07-06T01:08:05;4.93;;;1.35;;
17927;SDS011;9089;58.396;15.544;2022-07-06T01:10:30;3.42;;;1.42;;
17927;SDS011;9089;58.396;15.544;2022-07-06T01:12:56;2.42;;;1.38;;
17927;SDS011;9089;58.396;15.544;2022-07-06T01:15:22;3.38;;;1.42;;
17927;SDS011;9089;58.396;15.544;2022-07-06T01:17:49;2.38;;;1.45;;
17927;SDS011;9089;58.396;15.544;2022-07-06T01:20:17;3.17;;;1.42;;
17927;SDS011;9089;58.396;15.544;2022-07-06T01:22:44;2.20;;;1.52;;
17927;SDS011;9089;58.396;15.544;2022-07-06T01:25:09;2.88;;;1.30;;
17927;SDS011;9089;58.396;15.544;2022-07-06T01:27:35;2.15;;;1.38;;
17927;SDS011;9089;58.396;15.544;2022-07-06T01:30:04;5.78;;;2.17;;
17927;SDS011;9089;58.396;15.544;2022-07-06T01:32:30;3.78;;;1.75;;
17927;SDS011;9089;58.396;15.544;2022-07-06T01:34:55;3.25;;;1.40;;
17927;SDS011;9089;58.396;15.544;2022-07-06T01:37:23;4.25;;;1.30;;
17927;SDS011;9089;58.396;15.544;2022-07-06T01:39:49;3.95;;;1.50;;
17927;SDS011;9089;58.396;15.544;2022-07-06T01:42:14;6.43;;;1.75;;
17927;SDS011;9089;58.396;15.544;2022-07-06T01:44:39;6.30;;;1.63;;
17927;SDS011;9089;58.396;15.544;2022-07-06T01:47:05;2.38;;;1.40;;
17927;SDS011;9089;58.396;15.544;2022-07-06T01:49:30;4.43;;;1.52;;
17927;SDS011;9089;58.396;15.544;2022-07-06T01:51:56;1.83;;;1.20;;
17927;SDS011;9089;58.396;15.544;2022-07-06T01:54:23;1.48;;;1.35;;
17927;SDS011;9089;58.396;15.544;2022-07-06T01:56:49;4.90;;;1.60;;
17927;SDS011;9089;58.396;15.544;2022-07-06T01:59:15;4.55;;;1.75;;
17927;SDS011;9089;58.396;15.544;2022-07-06T02:01:41;3.50;;;1.60;;
17927;SDS011;9089;58.396;15.544;2022-07-06T02:04:06;5.03;;;1.35;;
17927;SDS011;9089;58.396;15.544;2022-07-06T02:06:32;8.10;;;1.50;;
17927;SDS011;9089;58.396;15.544;2022-07-06T02:08:57;3.42;;;1.50;;
17927;SDS011;9089;58.396;15.544;2022-07-06T02:11:24;4.13;;;1.40;;
17927;SDS011;9089;58.396;15.544;2022-07-06T02:13:49;2.65;;;1.60;;
17927;SDS011;9089;58.396;15.544;2022-07-06T02:16:15;6.40;;;1.80;;
17927;SDS011;9089;58.396;15.544;2022-07-06T02:18:41;5.72;;;1.70;;
17927;SDS011;9089;58.396;15.544;2022-07-06T02:21:06;4.13;;;1.33;;
17927;SDS011;9089;58.396;15.544;2022-07-06T02:23:32;2.58;;;1.40;;
17927;SDS011;9089;58.396;15.544;2022-07-06T02:25:58;6.28;;;1.40;;
17927;SDS011;9089;58.396;15.544;2022-07-06T02:28:25;3.55;;;1.23;;
17927;SDS011;9089;58.396;15.544;2022-07-06T02:30:51;4.15;;;1.65;;
17927;SDS011;9089;58.396;15.544;2022-07-06T02:33:17;2.92;;;1.38;;
17927;SDS011;9089;58.396;15.544;2022-07-06T02:35:42;5.28;;;1.60;;
17927;SDS011;9089;58.396;15.544;2022-07-06T02:38:09;4.50;;;1.40;;
17927;SDS011;9089;58.396;15.544;2022-07-06T02:40:34;3.53;;;1.52;;
17927;SDS011;9089;58.396;15.544;2022-07-06T02:43:00;4.63;;;1.40;;
17927;SDS011;9089;58.396;15.544;2022-07-06T02:45:27;4.00;;;1.30;;
17927;SDS011;9089;58.396;15.544;2022-07-06T02:47:53;2.08;;;1.20;;
17927;SDS011;9089;58.396;15.544;2022-07-06T02:50:20;2.90;;;1.30;;
17927;SDS011;9089;58.396;15.544;2022-07-06T02:52:46;4.15;;;1.38;;
17927;SDS011;9089;58.396;15.544;2022-07-06T02:55:11;2.40;;;1.23;;
17927;SDS011;9089;58.396;15.544;2022-07-06T02:57:38;6.65;;;1.55;;
17927;SDS011;9089;58.396;15.544;2022-07-06T03:00:04;3.55;;;1.23;;
17927;SDS011;9089;58.396;15.544;2022-07-06T03:02:32;3.47;;;1.40;;
17927;SDS011;9089;58.396;15.544;2022-07-06T03:04:58;7.50;;;1.52;;
17927;SDS011;9089;58.396;15.544;2022-07-06T03:07:25;2.75;;;1.20;;
17927;SDS011;9089;58.396;15.544;2022-07-06T03:09:51;3.88;;;1.20;;
17927;SDS011;9089;58.396;15.544;2022-07-06T03:12:16;3.50;;;1.20;;
17927;SDS011;9089;58.396;15.544;2022-07-06T03:14:42;1.73;;;1.17;;
17927;SDS011;9089;58.396;15.544;2022-07-06T03:17:08;5.65;;;1.60;;
17927;SDS011;9089;58.396;15.544;2022-07-06T03:19:35;1.88;;;1.08;;
17927;SDS011;9089;58.396;15.544;2022-07-06T03:22:01;1.88;;;1.10;;
17927;SDS011;9089;58.396;15.544;2022-07-06T03:24:27;2.42;;;1.30;;
17927;SDS011;9089;58.396;15.544;2022-07-06T03:26:53;6.60;;;1.10;;
17927;SDS011;9089;58.396;15.544;2022-07-06T03:29:18;2.97;;;1.38;;
17927;SDS011;9089;58.396;15.544;2022-07-06T03:31:44;4.72;;;1.38;;
17927;SDS011;9089;58.396;15.544;2022-07-06T03:34:10;2.88;;;1.00;;
17927;SDS011;9089;58.396;15.544;2022-07-06T03:36:38;2.88;;;1.13;;
17927;SDS011;9089;58.396;15.544;2022-07-06T03:39:04;5.00;;;1.20;;
17927;SDS011;9089;58.396;15.544;2022-07-06T03:41:30;1.58;;;1.05;;
17927;SDS011;9089;58.396;15.544;2022-07-06T03:43:56;7.47;;;1.50;;
17927;SDS011;9089;58.396;15.544;2022-07-06T03:46:22;3.95;;;1.42;;
17927;SDS011;9089;58.396;15.544;2022-07-06T03:48:47;3.80;;;1.65;;
17927;SDS011;9089;58.396;15.544;2022-07-06T03:51:13;4.63;;;1.40;;
17927;SDS011;9089;58.396;15.544;2022-07-06T03:53:40;3.00;;;1.25;;
17927;SDS011;9089;58.396;15.544;2022-07-06T03:56:05;4.28;;;1.40;;
17927;SDS011;9089;58.396;15.544;2022-07-06T03:58:50;4.68;;;1.25;;
17927;SDS011;9089;58.396;15.544;2022-07-06T04:01:15;4.68;;;1.60;;
17927;SDS011;9089;58.396;15.544;2022-07-06T04:03:41;4.47;;;1.50;;
17927;SDS011;9089;58.396;15.544;2022-07-06T04:06:08;6.18;;;1.30;;
17927;SDS011;9089;58.396;15.544;2022-07-06T04:08:33;4.82;;;1.20;;
17927;SDS011;9089;58.396;15.544;2022-07-06T04:11:01;4.07;;;1.33;;
17927;SDS011;9089;58.396;15.544;2022-07-06T04:13:26;3.33;;;1.42;;
17927;SDS011;9089;58.396;15.544;2022-07-06T04:15:53;4.55;;;1.52;;
17927;SDS011;9089;58.396;15.544;2022-07-06T04:18:18;3.28;;;1.83;;
17927;SDS011;9089;58.396;15.544;2022-07-06T04:20:48;2.60;;;1.30;;
17927;SDS011;9089;58.396;15.544;2022-07-06T04:23:13;5.05;;;1.33;;
17927;SDS011;9089;58.396;15.544;2022-07-06T04:25:39;2.05;;;1.50;;
17927;SDS011;9089;58.396;15.544;2022-07-06T04:28:06;6.45;;;1.60;;
17927;SDS011;9089;58.396;15.544;2022-07-06T04:30:34;4.47;;;1.70;;
17927;SDS011;9089;58.396;15.544;2022-07-06T04:33:01;3.20;;;1.50;;
17927;SDS011;9089;58.396;15.544;2022-07-06T04:35:30;6.53;;;1.70;;
17927;SDS011;9089;58.396;15.544;2022-07-06T04:37:57;2.92;;;1.48;;
17927;SDS011;9089;58.396;15.544;2022-07-06T04:40:22;6.47;;;1.73;;
17927;SDS011;9089;58.396;15.544;2022-07-06T04:42:52;2.85;;;1.48;;
17927;SDS011;9089;58.396;15.544;2022-07-06T04:45:19;7.55;;;1.25;;
17927;SDS011;9089;58.396;15.544;2022-07-06T04:47:46;4.18;;;1.17;;
17927;SDS011;9089;58.396;15.544;2022-07-06T04:50:12;4.55;;;1.42;;
17927;SDS011;9089;58.396;15.544;2022-07-06T04:52:39;3.63;;;1.45;;
17927;SDS011;9089;58.396;15.544;2022-07-06T04:55:05;2.85;;;1.52;;
17927;SDS011;9089;58.396;15.544;2022-07-06T04:57:31;3.78;;;1.60;;
17927;SDS011;9089;58.396;15.544;2022-07-06T04:59:58;5.03;;;1.67;;
17927;SDS011;9089;58.396;15.544;2022-07-06T05:02:25;7.20;;;1.85;;
17927;SDS011;9089;58.396;15.544;2022-07-06T05:04:50;4.20;;;1.38;;
17927;SDS011;9089;58.396;15.544;2022-07-06T05:07:17;5.78;;;1.65;;
17927;SDS011;9089;58.396;15.544;2022-07-06T05:09:43;4.10;;;1.42;;
17927;SDS011;9089;58.396;15.544;2022-07-06T05:12:09;7.45;;;1.50;;
17927;SDS011;9089;58.396;15.544;2022-07-06T05:14:35;2.75;;;1.33;;
17927;SDS011;9089;58.396;15.544;2022-07-06T05:17:02;7.60;;;1.80;;
17927;SDS011;9089;58.396;15.544;2022-07-06T05:19:30;7.13;;;1.58;;
17927;SDS011;9089;58.396;15.544;2022-07-06T05:21:55;2.72;;;1.05;;
17927;SDS011;9089;58.396;15.544;2022-07-06T05:24:21;3.55;;;1.42;;
17927;SDS011;9089;58.396;15.544;2022-07-06T05:26:47;4.97;;;1.75;;
17927;SDS011;9089;58.396;15.544;2022-07-06T05:29:13;3.35;;;1.45;;
17927;SDS011;9089;58.396;15.544;2022-07-06T05:31:38;5.07;;;1.25;;
17927;SDS011;9089;58.396;15.544;2022-07-06T05:34:04;5.30;;;1.30;;
17927;SDS011;9089;58.396;15.544;2022-07-06T05:36:31;3.70;;;1.40;;
17927;SDS011;9089;58.396;15.544;2022-07-06T05:38:57;3.60;;;1.48;;
17927;SDS011;9089;58.396;15.544;2022-07-06T05:41:23;5.45;;;1.58;;
17927;SDS011;9089;58.396;15.544;2022-07-06T05:43:48;4.00;;;1.45;;
17927;SDS011;9089;58.396;15.544;2022-07-06T05:46:14;4.50;;;1.40;;
17927;SDS011;9089;58.396;15.544;2022-07-06T05:48:39;3.50;;;1.58;;
17927;SDS011;9089;58.396;15.544;2022-07-06T05:51:24;3.38;;;1.20;;
17927;SDS011;9089;58.396;15.544;2022-07-06T05:53:52;4.53;;;1.73;;
17927;SDS011;9089;58.396;15.544;2022-07-06T05:56:19;4.03;;;0.93;;
17927;SDS011;9089;58.396;15.544;2022-07-06T05:58:45;3.33;;;1.13;;
17927;SDS011;9089;58.396;15.544;2022-07-06T06:01:10;3.75;;;1.38;;
17927;SDS011;9089;58.396;15.544;2022-07-06T06:03:37;2.60;;;1.20;;
17927;SDS011;9089;58.396;15.544;2022-07-06T06:06:04;7.63;;;1.58;;
17927;SDS011;9089;58.396;15.544;2022-07-06T06:08:30;3.08;;;1.08;;
17927;SDS011;9089;58.396;15.544;2022-07-06T06:10:57;4.43;;;1.20;;
17927;SDS011;9089;58.396;15.544;2022-07-06T06:13:23;7.93;;;1.55;;
17927;SDS011;9089;58.396;15.544;2022-07-06T06:15:49;5.57;;;1.30;;
17927;SDS011;9089;58.396;15.544;2022-07-06T06:18:15;2.90;;;1.40;;
17927;SDS011;9089;58.396;15.544;2022-07-06T06:20:44;8.32;;;1.40;;
17927;SDS011;9089;58.396;15.544;2022-07-06T06:23:10;2.25;;;0.95;;
17927;SDS011;9089;58.396;15.544;2022-07-06T06:25:36;6.88;;;1.30;;
17927;SDS011;9089;58.396;15.544;2022-07-06T06:28:03;2.92;;;1.00;;
17927;SDS011;9089;58.396;15.544;2022-07-06T06:30:29;3.00;;;1.08;;
17927;SDS011;9089;58.396;15.544;2022-07-06T06:33:04;3.95;;;0.93;;
17927;SDS011;9089;58.396;15.544;2022-07-06T06:35:30;6.75;;;1.40;;
17927;SDS011;9089;58.396;15.544;2022-07-06T06:37:55;5.78;;;0.90;;
17927;SDS011;9089;58.396;15.544;2022-07-06T06:40:21;3.47;;;1.10;;
17927;SDS011;9089;58.396;15.544;2022-07-06T06:42:46;5.32;;;1.55;;
17927;SDS011;9089;58.396;15.544;2022-07-06T06:45:13;4.05;;;1.10;;
17927;SDS011;9089;58.396;15.544;2022-07-06T06:47:39;3.60;;;1.10;;
17927;SDS011;9089;58.396;15.544;2022-07-06T06:50:05;2.63;;;1.00;;
17927;SDS011;9089;58.396;15.544;2022-07-06T06:52:30;1.92;;;0.90;;
17927;SDS011;9089;58.396;15.544;2022-07-06T06:54:56;3.92;;;1.17;;
17927;SDS011;9089;58.396;15.544;2022-07-06T06:57:21;2.47;;;1.08;;
17927;SDS011;9089;58.396;15.544;2022-07-06T06:59:46;2.45;;;0.95;;
17927;SDS011;9089;58.396;15.544;2022-07-06T07:02:13;3.42;;;1.20;;
17927;SDS011;9089;58.396;15.544;2022-07-06T07:04:39;5.05;;;1.02;;
17927;SDS011;9089;58.396;15.544;2022-07-06T07:07:04;5.53;;;1.27;;
17927;SDS011;9089;58.396;15.544;2022-07-06T07:09:29;4.30;;;0.90;;
17927;SDS011;9089;58.396;15.544;2022-07-06T07:11:55;5.30;;;0.90;;
17927;SDS011;9089;58.396;15.544;2022-07-06T07:14:20;4.70;;;0.93;;
17927;SDS011;9089;58.396;15.544;2022-07-06T07:16:46;4.40;;;0.98;;
17927;SDS011;9089;58.396;15.544;2022-07-06T07:19:12;3.55;;;1.02;;
17927;SDS011;9089;58.396;15.544;2022-07-06T07:21:38;7.82;;;1.00;;
17927;SDS011;9089;58.396;15.544;2022-07-06T07:24:03;2.65;;;0.73;;
17927;SDS011;9089;58.396;15.544;2022-07-06T07:26:29;2.35;;;0.80;;
17927;SDS011;9089;58.396;15.544;2022-07-06T07:28:54;2.58;;;0.93;;
17927;SDS011;9089;58.396;15.544;2022-07-06T07:31:20;3.05;;;0.90;;
17927;SDS011;9089;58.396;15.544;2022-07-06T07:33:46;1.70;;;0.82;;
17927;SDS011;9089;58.396;15.544;2022-07-06T07:36:12;4.28;;;1.10;;
17927;SDS011;9089;58.396;15.544;2022-07-06T07:38:38;2.30;;;0.73;;
17927;SDS011;9089;58.396;15.544;2022-07-06T07:41:03;3.35;;;1.02;;
17927;SDS011;9089;58.396;15.544;2022-07-06T07:43:30;3.58;;;0.70;;
17927;SDS011;9089;58.396;15.544;2022-07-06T07:45:56;3.78;;;1.10;;
17927;SDS011;9089;58.396;15.544;2022-07-06T07:48:21;4.40;;;1.50;;
17927;SDS011;9089;58.396;15.544;2022-07-06T07:50:47;1.75;;;0.80;;
17927;SDS011;9089;58.396;15.544;2022-07-06T07:53:14;3.38;;;0.90;;
17927;SDS011;9089;58.396;15.544;2022-07-06T07:55:39;3.42;;;0.90;;
17927;SDS011;9089;58.396;15.544;2022-07-06T07:58:05;1.88;;;0.70;;
17927;SDS011;9089;58.396;15.544;2022-07-06T08:00:31;2.17;;;0.82;;
17927;SDS011;9089;58.396;15.544;2022-07-06T08:02:56;3.53;;;0.80;;
17927;SDS011;9089;58.396;15.544;2022-07-06T08:05:22;4.63;;;0.98;;
17927;SDS011;9089;58.396;15.544;2022-07-06T08:07:47;2.92;;;0.80;;
17927;SDS011;9089;58.396;15.544;2022-07-06T08:10:14;3.03;;;0.85;;
17927;SDS011;9089;58.396;15.544;2022-07-06T08:12:39;1.88;;;0.80;;
17927;SDS011;9089;58.396;15.544;2022-07-06T08:15:06;2.88;;;0.80;;
17927;SDS011;9089;58.396;15.544;2022-07-06T08:17:31;1.35;;;0.63;;
17927;SDS011;9089;58.396;15.544;2022-07-06T08:19:57;3.03;;;1.05;;
17927;SDS011;9089;58.396;15.544;2022-07-06T08:22:22;3.97;;;0.93;;
17927;SDS011;9089;58.396;15.544;2022-07-06T08:24:48;4.03;;;1.08;;
17927;SDS011;9089;58.396;15.544;2022-07-06T08:27:15;2.53;;;0.95;;
17927;SDS011;9089;58.396;15.544;2022-07-06T08:29:40;2.63;;;1.00;;
17927;SDS011;9089;58.396;15.544;2022-07-06T08:32:06;5.93;;;0.90;;
17927;SDS011;9089;58.396;15.544;2022-07-06T08:34:31;4.38;;;0.80;;
17927;SDS011;9089;58.396;15.544;2022-07-06T08:36:57;3.75;;;0.90;;
17927;SDS011;9089;58.396;15.544;2022-07-06T08:39:22;2.00;;;0.63;;
17927;SDS011;9089;58.396;15.544;2022-07-06T08:41:48;6.15;;;0.95;;
17927;SDS011;9089;58.396;15.544;2022-07-06T08:44:15;2.30;;;0.95;;
17927;SDS011;9089;58.396;15.544;2022-07-06T08:46:41;2.38;;;0.60;;
17927;SDS011;9089;58.396;15.544;2022-07-06T08:49:07;1.70;;;0.60;;
17927;SDS011;9089;58.396;15.544;2022-07-06T08:51:34;2.40;;;0.85;;
17927;SDS011;9089;58.396;15.544;2022-07-06T08:53:59;2.17;;;0.85;;
17927;SDS011;9089;58.396;15.544;2022-07-06T08:56:27;5.40;;;0.82;;
17927;SDS011;9089;58.396;15.544;2022-07-06T08:58:52;1.95;;;0.77;;
17927;SDS011;9089;58.396;15.544;2022-07-06T09:01:20;1.60;;;0.60;;
17927;SDS011;9089;58.396;15.544;2022-07-06T09:03:46;3.80;;;0.80;;
17927;SDS011;9089;58.396;15.544;2022-07-06T09:06:13;3.58;;;0.88;;
17927;SDS011;9089;58.396;15.544;2022-07-06T09:08:41;3.47;;;0.70;;
17927;SDS011;9089;58.396;15.544;2022-07-06T09:11:08;1.55;;;0.60;;
17927;SDS011;9089;58.396;15.544;2022-07-06T09:13:33;2.90;;;0.80;;
17927;SDS011;9089;58.396;15.544;2022-07-06T09:16:08;2.22;;;0.75;;
17927;SDS011;9089;58.396;15.544;2022-07-06T09:18:37;2.45;;;0.90;;
17927;SDS011;9089;58.396;15.544;2022-07-06T09:21:03;2.55;;;0.70;;
17927;SDS011;9089;58.396;15.544;2022-07-06T09:23:29;1.42;;;0.80;;
17927;SDS011;9089;58.396;15.544;2022-07-06T09:25:54;3.63;;;0.80;;
17927;SDS011;9089;58.396;15.544;2022-07-06T09:28:20;1.27;;;0.73;;
17927;SDS011;9089;58.396;15.544;2022-07-06T09:30:45;1.83;;;0.60;;
17927;SDS011;9089;58.396;15.544;2022-07-06T09:33:11;2.03;;;0.70;;
17927;SDS011;9089;58.396;15.544;2022-07-06T09:35:39;2.95;;;0.80;;
17927;SDS011;9089;58.396;15.544;2022-07-06T09:38:05;1.00;;;0.60;;
17927;SDS011;9089;58.396;15.544;2022-07-06T09:40:31;2.67;;;0.60;;
17927;SDS011;9089;58.396;15.544;2022-07-06T09:43:13;2.17;;;0.70;;
17927;SDS011;9089;58.396;15.544;2022-07-06T09:45:39;3.50;;;0.70;;
17927;SDS011;9089;58.396;15.544;2022-07-06T09:48:05;2.28;;;0.63;;
17927;SDS011;9089;58.396;15.544;2022-07-06T09:50:32;2.20;;;0.77;;
17927;SDS011;9089;58.396;15.544;2022-07-06T09:53:04;2.67;;;0.77;;
17927;SDS011;9089;58.396;15.544;2022-07-06T09:55:30;1.45;;;0.60;;
17927;SDS011;9089;58.396;15.544;2022-07-06T09:57:55;0.70;;;0.50;;
17927;SDS011;9089;58.396;15.544;2022-07-06T10:00:21;1.23;;;0.57;;
17927;SDS011;9089;58.396;15.544;2022-07-06T10:02:46;1.98;;;0.80;;
17927;SDS011;9089;58.396;15.544;2022-07-06T10:05:13;1.55;;;0.52;;
17927;SDS011;9089;58.396;15.544;2022-07-06T10:07:39;1.92;;;0.60;;
17927;SDS011;9089;58.396;15.544;2022-07-06T10:10:06;4.13;;;0.60;;
17927;SDS011;9089;58.396;15.544;2022-07-06T10:12:32;1.95;;;0.60;;
17927;SDS011;9089;58.396;15.544;2022-07-06T10:14:58;1.15;;;0.50;;
17927;SDS011;9089;58.396;15.544;2022-07-06T10:17:23;1.42;;;0.63;;
17927;SDS011;9089;58.396;15.544;2022-07-06T10:19:49;1.65;;;0.40;;
17927;SDS011;9089;58.396;15.544;2022-07-06T10:22:15;1.73;;;0.52;;
17927;SDS011;9089;58.396;15.544;2022-07-06T10:24:43;2.40;;;0.65;;
17927;SDS011;9089;58.396;15.544;2022-07-06T10:27:10;0.50;;;0.40;;
17927;SDS011;9089;58.396;15.544;2022-07-06T10:29:36;2.42;;;0.80;;
17927;SDS011;9089;58.396;15.544;2022-07-06T10:32:01;0.43;;;0.30;;
17927;SDS011;9089;58.396;15.544;2022-07-06T10:34:27;1.13;;;0.43;;
17927;SDS011;9089;58.396;15.544;2022-07-06T10:36:53;1.05;;;0.40;;
17927;SDS011;9089;58.396;15.544;2022-07-06T10:39:31;2.72;;;0.60;;
17927;SDS011;9089;58.396;15.544;2022-07-06T10:44:57;1.23;;;0.50;;
17927;SDS011;9089;58.396;15.544;2022-07-06T10:47:27;0.50;;;0.40;;
17927;SDS011;9089;58.396;15.544;2022-07-06T10:49:52;2.67;;;0.50;;
17927;SDS011;9089;58.396;15.544;2022-07-06T10:52:24;1.88;;;0.50;;
17927;SDS011;9089;58.396;15.544;2022-07-06T10:55:12;1.05;;;0.40;;
17927;SDS011;9089;58.396;15.544;2022-07-06T10:57:52;2.15;;;0.40;;
17927;SDS011;9089;58.396;15.544;2022-07-06T11:00:19;0.93;;;0.28;;
17927;SDS011;9089;58.396;15.544;2022-07-06T11:02:44;1.63;;;0.45;;
17927;SDS011;9089;58.396;15.544;2022-07-06T11:05:10;1.30;;;0.35;;
17927;SDS011;9089;58.396;15.544;2022-07-06T11:07:35;0.95;;;0.40;;
17927;SDS011;9089;58.396;15.544;2022-07-06T11:10:13;2.90;;;0.20;;
17927;SDS011;9089;58.396;15.544;2022-07-06T11:12:38;1.92;;;0.20;;
17927;SDS011;9089;58.396;15.544;2022-07-06T11:15:09;0.40;;;0.22;;
17927;SDS011;9089;58.396;15.544;2022-07-06T11:17:36;2.75;;;0.22;;
17927;SDS011;9089;58.396;15.544;2022-07-06T11:20:08;0.20;;;0.10;;
17927;SDS011;9089;58.396;15.544;2022-07-06T11:22:35;0.50;;;0.20;;
17927;SDS011;9089;58.396;15.544;2022-07-06T11:25:01;0.77;;;0.17;;
17927;SDS011;9089;58.396;15.544;2022-07-06T11:27:27;0.20;;;0.10;;
17927;SDS011;9089;58.396;15.544;2022-07-06T11:29:52;0.30;;;0.10;;
17927;SDS011;9089;58.396;15.544;2022-07-06T11:32:23;0.20;;;0.10;;
17927;SDS011;9089;58.396;15.544;2022-07-06T11:34:50;1.55;;;0.40;;
17927;SDS011;9089;58.396;15.544;2022-07-06T11:37:15;0.43;;;0.10;;
17927;SDS011;9089;58.396;15.544;2022-07-06T11:39:43;1.17;;;0.20;;
17927;SDS011;9089;58.396;15.544;2022-07-06T11:42:09;0.30;;;0.20;;
17927;SDS011;9089;58.396;15.544;2022-07-06T11:44:35;0.95;;;0.20;;
17927;SDS011;9089;58.396;15.544;2022-07-06T11:47:01;0.57;;;0.35;;
17927;SDS011;9089;58.396;15.544;2022-07-06T11:49:28;1.35;;;0.30;;
17927;SDS011;9089;58.396;15.544;2022-07-06T11:51:55;0.60;;;0.20;;
17927;SDS011;9089;58.396;15.544;2022-07-06T11:54:21;2.42;;;0.20;;
17927;SDS011;9089;58.396;15.544;2022-07-06T11:56:47;0.35;;;0.10;;
17927;SDS011;9089;58.396;15.544;2022-07-06T11:59:13;1.15;;;0.20;;
17927;SDS011;9089;58.396;15.544;2022-07-06T12:01:40;1.23;;;0.20;;
17927;SDS011;9089;58.396;15.544;2022-07-06T12:04:09;0.30;;;0.20;;
17927;SDS011;9089;58.396;15.544;2022-07-06T12:06:35;0.30;;;0.10;;
17927;SDS011;9089;58.396;15.544;2022-07-06T12:09:02;0.35;;;0.10;;
17927;SDS011;9089;58.396;15.544;2022-07-06T12:11:30;0.35;;;0.15;;
17927;SDS011;9089;58.396;15.544;2022-07-06T12:13:56;0.20;;;0.10;;
17927;SDS011;9089;58.396;15.544;2022-07-06T12:16:28;1.00;;;0.20;;
17927;SDS011;9089;58.396;15.544;2022-07-06T12:18:54;0.73;;;0.22;;
17927;SDS011;9089;58.396;15.544;2022-07-06T12:21:19;1.10;;;0.20;;
17927;SDS011;9089;58.396;15.544;2022-07-06T12:23:47;0.20;;;0.00;;
17927;SDS011;9089;58.396;15.544;2022-07-06T12:26:14;0.20;;;0.10;;
17927;SDS011;9089;58.396;15.544;2022-07-06T12:28:40;4.95;;;0.20;;
17927;SDS011;9089;58.396;15.544;2022-07-06T12:31:06;1.20;;;0.30;;
17927;SDS011;9089;58.396;15.544;2022-07-06T12:33:31;0.20;;;0.10;;
17927;SDS011;9089;58.396;15.544;2022-07-06T12:35:57;0.38;;;0.20;;
17927;SDS011;9089;58.396;15.544;2022-07-06T12:38:47;0.75;;;0.17;;
17927;SDS011;9089;58.396;15.544;2022-07-06T12:41:28;0.38;;;0.10;;
17927;SDS011;9089;58.396;15.544;2022-07-06T12:44:02;0.30;;;0.15;;
17927;SDS011;9089;58.396;15.544;2022-07-06T12:46:29;2.50;;;0.10;;
17927;SDS011;9089;58.396;15.544;2022-07-06T12:48:56;0.63;;;0.10;;
17927;SDS011;9089;58.396;15.544;2022-07-06T12:51:23;0.40;;;0.20;;
17927;SDS011;9089;58.396;15.544;2022-07-06T12:53:51;0.40;;;0.30;;
17927;SDS011;9089;58.396;15.544;2022-07-06T12:56:17;0.57;;;0.10;;
17927;SDS011;9089;58.396;15.544;2022-07-06T12:58:57;0.20;;;0.10;;
17927;SDS011;9089;58.396;15.544;2022-07-06T13:01:25;0.38;;;0.13;;
17927;SDS011;9089;58.396;15.544;2022-07-06T13:03:54;0.30;;;0.10;;
17927;SDS011;9089;58.396;15.544;2022-07-06T13:06:30;0.40;;;0.20;;
17927;SDS011;9089;58.396;15.544;2022-07-06T13:08:58;0.77;;;0.10;;
17927;SDS011;9089;58.396;15.544;2022-07-06T13:11:24;0.20;;;0.10;;
17927;SDS011;9089;58.396;15.544;2022-07-06T13:13:50;0.30;;;0.10;;
17927;SDS011;9089;58.396;15.544;2022-07-06T13:16:16;0.85;;;0.10;;
17927;SDS011;9089;58.396;15.544;2022-07-06T13:18:41;0.20;;;0.10;;
17927;SDS011;9089;58.396;15.544;2022-07-06T13:21:07;0.80;;;0.10;;
17927;SDS011;9089;58.396;15.544;2022-07-06T13:23:33;0.50;;;0.10;;
17927;SDS011;9089;58.396;15.544;2022-07-06T13:26:00;1.20;;;0.20;;
17927;SDS011;9089;58.396;15.544;2022-07-06T13:28:26;0.22;;;0.13;;
17927;SDS011;9089;58.396;15.544;2022-07-06T13:30:52;0.68;;;0.20;;
17927;SDS011;9089;58.396;15.544;2022-07-06T13:33:17;1.00;;;0.10;;
17927;SDS011;9089;58.396;15.544;2022-07-06T13:35:43;0.40;;;0.10;;
17927;SDS011;9089;58.396;15.544;2022-07-06T13:38:09;0.38;;;0.20;;
17927;SDS011;9089;58.396;15.544;2022-07-06T13:40:35;2.67;;;0.20;;
17927;SDS011;9089;58.396;15.544;2022-07-06T13:43:02;0.20;;;0.10;;
17927;SDS011;9089;58.396;15.544;2022-07-06T13:45:28;0.73;;;0.10;;
17927;SDS011;9089;58.396;15.544;2022-07-06T13:47:54;0.40;;;0.20;;
17927;SDS011;9089;58.396;15.544;2022-07-06T13:50:20;0.20;;;0.10;;
17927;SDS011;9089;58.396;15.544;2022-07-06T13:52:45;0.50;;;0.20;;
17927;SDS011;9089;58.396;15.544;2022-07-06T13:55:11;0.60;;;0.10;;
17927;SDS011;9089;58.396;15.544;2022-07-06T13:57:37;0.20;;;0.10;;
17927;SDS011;9089;58.396;15.544;2022-07-06T14:00:08;0.20;;;0.10;;
17927;SDS011;9089;58.396;15.544;2022-07-06T14:02:35;0.30;;;0.20;;
17927;SDS011;9089;58.396;15.544;2022-07-06T14:05:00;1.40;;;0.10;;
17927;SDS011;9089;58.396;15.544;2022-07-06T14:07:26;1.75;;;0.20;;
17927;SDS011;9089;58.396;15.544;2022-07-06T14:09:52;0.30;;;0.10;;
17927;SDS011;9089;58.396;15.544;2022-07-06T14:12:18;0.25;;;0.10;;
17927;SDS011;9089;58.396;15.544;2022-07-06T14:14:44;0.88;;;0.20;;
17927;SDS011;9089;58.396;15.544;2022-07-06T14:17:11;0.30;;;0.10;;
17927;SDS011;9089;58.396;15.544;2022-07-06T14:19:38;1.30;;;0.30;;
17927;SDS011;9089;58.396;15.544;2022-07-06T14:22:03;1.95;;;0.20;;
17927;SDS011;9089;58.396;15.544;2022-07-06T14:24:29;0.30;;;0.10;;
17927;SDS011;9089;58.396;15.544;2022-07-06T14:26:55;0.30;;;0.20;;
17927;SDS011;9089;58.396;15.544;2022-07-06T14:29:20;1.30;;;0.10;;
17927;SDS011;9089;58.396;15.544;2022-07-06T14:31:46;0.28;;;0.15;;
17927;SDS011;9089;58.396;15.544;2022-07-06T14:34:14;0.75;;;0.10;;
17927;SDS011;9089;58.396;15.544;2022-07-06T14:36:39;0.38;;;0.10;;
17927;SDS011;9089;58.396;15.544;2022-07-06T14:39:05;0.20;;;0.10;;
17927;SDS011;9089;58.396;15.544;2022-07-06T14:41:31;0.20;;;0.10;;
17927;SDS011;9089;58.396;15.544;2022-07-06T14:43:56;0.25;;;0.10;;
17927;SDS011;9089;58.396;15.544;2022-07-06T14:46:22;0.85;;;0.20;;